Time;durP1;ratioP1;P1;durP2;ratioP2;P2;SDS_P1;SDS_P2;PMS_P1;PMS_P2;Temp;Humidity;BMP_temperature;BMP_pressure;BME280_temperature;BME280_humidity;BME280_pressure;Samples;Min_cycle;Max_cycle;Signal;HPM_P1;HPM_P2
2023/07/06 04:00:19;;;;;;;5.78;2.53;;;17.10;99.90;;;;;;6030757;23;19917;31
2023/07/06 04:02:46;;;;;;;4.70;2.30;;;17.10;99.90;;;;;;4992503;28;20046;-70
2023/07/06 04:05:12;;;;;;;5.38;2.35;;;17.00;99.90;;;;;;4982584;28;20368;-68
2023/07/06 04:07:38;;;;;;;4.18;2.15;;;17.30;99.90;;;;;;4974725;28;20034;-70
2023/07/06 04:10:05;;;;;;;5.88;2.78;;;17.10;99.90;;;;;;4973244;28;20023;-69
2023/07/06 04:12:32;;;;;;;3.47;2.40;;;17.10;99.90;;;;;;4981332;28;20019;-69
2023/07/06 04:14:58;;;;;;;4.22;2.38;;;17.10;99.90;;;;;;4987326;28;20030;-71
2023/07/06 04:17:26;;;;;;;5.10;2.53;;;17.10;99.90;;;;;;4975165;28;20114;-71
2023/07/06 04:19:53;;;;;;;7.55;2.90;;;17.10;99.90;;;;;;4975184;28;20066;-67
2023/07/06 04:22:19;;;;;;;5.70;2.60;;;17.30;99.90;;;;;;4974182;28;20365;-67
2023/07/06 04:24:44;;;;;;;5.55;2.70;;;17.20;99.90;;;;;;4975092;28;20058;-69
2023/07/06 04:27:10;;;;;;;5.43;2.37;;;17.30;99.90;;;;;;4960567;28;20126;-68
2023/07/06 04:29:35;;;;;;;5.60;2.78;;;17.30;99.90;;;;;;4960471;28;20266;-68
2023/07/06 04:32:01;;;;;;;5.13;2.63;;;17.20;99.90;;;;;;4961005;28;20039;-68
2023/07/06 04:34:27;;;;;;;6.57;2.67;;;17.40;99.90;;;;;;4988602;28;20472;-67
2023/07/06 04:36:53;;;;;;;6.70;2.97;;;17.70;99.90;;;;;;4997171;28;20026;-68
2023/07/06 04:39:18;;;;;;;4.95;2.95;;;17.80;99.90;;;;;;4997096;28;20026;-67
2023/07/06 04:41:44;;;;;;;7.28;2.65;;;17.80;99.90;;;;;;4997296;28;20026;-67
2023/07/06 04:44:10;;;;;;;4.32;2.58;;;17.70;99.90;;;;;;4979379;28;20034;-65
2023/07/06 04:46:36;;;;;;;5.47;2.80;;;17.50;99.90;;;;;;4994519;28;20052;-64
2023/07/06 04:49:02;;;;;;;3.53;2.67;;;17.30;99.90;;;;;;4996077;28;20437;-64
2023/07/06 04:51:28;;;;;;;6.07;2.05;;;17.30;99.90;;;;;;4996833;28;20037;-65
2023/07/06 04:53:54;;;;;;;3.78;2.53;;;17.20;99.90;;;;;;4981607;28;20419;-64
2023/07/06 04:56:21;;;;;;;4.25;2.25;;;17.20;99.90;;;;;;4995103;28;20049;-65
2023/07/06 04:58:47;;;;;;;5.15;2.38;;;17.20;99.90;;;;;;4996816;28;20022;-65
2023/07/06 05:01:14;;;;;;;5.50;2.67;;;17.10;99.90;;;;;;4996432;28;20368;-65
2023/07/06 05:03:40;;;;;;;3.20;2.20;;;17.10;99.90;;;;;;4981091;28;20567;-66
2023/07/06 05:06:08;;;;;;;7.10;3.30;;;17.20;99.90;;;;;;4994182;28;20117;-65
2023/07/06 05:08:34;;;;;;;4.53;2.45;;;17.30;99.90;;;;;;4979200;28;20046;-65
2023/07/06 05:11:03;;;;;;;4.22;2.35;;;17.40;99.90;;;;;;4996951;28;20022;-65
2023/07/06 05:13:29;;;;;;;4.25;2.33;;;17.60;99.90;;;;;;4996701;28;20027;-65
2023/07/06 05:15:55;;;;;;;3.25;2.60;;;17.70;99.90;;;;;;4996996;28;20097;-64
2023/07/06 05:18:22;;;;;;;5.43;2.25;;;17.70;99.90;;;;;;4996755;28;20062;-64
2023/07/06 05:20:49;;;;;;;6.32;2.88;;;17.70;99.90;;;;;;4995260;28;20030;-65
2023/07/06 05:23:18;;;;;;;4.00;2.30;;;17.60;99.90;;;;;;4997176;28;20022;-65
2023/07/06 05:25:44;;;;;;;6.10;2.47;;;17.50;99.90;;;;;;4997014;28;20069;-65
2023/07/06 05:28:13;;;;;;;6.47;2.78;;;17.50;99.90;;;;;;4997214;28;20027;-66
2023/07/06 05:30:39;;;;;;;5.85;3.15;;;17.50;99.90;;;;;;4997180;28;20030;-65
2023/07/06 05:33:05;;;;;;;;;;;17.50;99.90;;;;;;4997743;28;20080;-66
2023/07/06 05:35:32;;;;;;;4.65;2.50;;;17.70;99.90;;;;;;4995378;28;20008;-65
2023/07/06 05:37:59;;;;;;;6.18;2.40;;;17.60;99.90;;;;;;4978782;28;20033;-66
2023/07/06 05:40:25;;;;;;;5.68;2.83;;;17.60;99.90;;;;;;4996268;28;20116;-66
2023/07/06 05:42:54;;;;;;;6.18;2.03;;;17.60;99.90;;;;;;4996058;28;20031;-65
2023/07/06 05:45:19;;;;;;;5.25;2.25;;;17.60;99.90;;;;;;4977993;28;20030;-66
2023/07/06 05:47:45;;;;;;;4.55;2.63;;;17.60;99.90;;;;;;4994344;28;20444;-66
2023/07/06 05:50:11;;;;;;;4.85;2.50;;;17.60;99.90;;;;;;4994070;28;20152;-66
2023/07/06 05:52:36;;;;;;;6.32;2.13;;;17.70;99.90;;;;;;4994169;28;20106;-66
2023/07/06 05:55:02;;;;;;;6.05;2.70;;;17.90;99.90;;;;;;4992812;28;20430;-70
2023/07/06 05:57:27;;;;;;;5.75;2.30;;;18.00;99.90;;;;;;4994365;28;20061;-70
2023/07/06 05:59:53;;;;;;;4.82;2.53;;;18.10;99.90;;;;;;4994319;28;20084;-72
2023/07/06 06:02:20;;;;;;;5.68;2.45;;;18.10;99.90;;;;;;4996204;28;20026;-71
2023/07/06 06:04:51;;;;;;;10.73;2.65;;;18.20;99.90;;;;;;4996544;28;20022;-71
2023/07/06 06:07:19;;;;;;;6.88;2.40;;;18.30;99.90;;;;;;4996379;28;20027;-72
2023/07/06 06:09:48;;;;;;;5.00;2.13;;;18.20;99.90;;;;;;4995693;28;20034;-72
2023/07/06 06:12:18;;;;;;;3.72;2.05;;;18.20;99.90;;;;;;4984399;28;20459;-70
2023/07/06 06:14:46;;;;;;;7.18;2.70;;;18.20;99.90;;;;;;4996406;28;20054;-71
2023/07/06 06:17:12;;;;;;;4.78;1.90;;;18.30;99.90;;;;;;4995965;28;20022;-71
2023/07/06 06:19:38;;;;;;;;;;;18.20;99.90;;;;;;4977990;28;20462;-71
2023/07/06 06:22:05;;;;;;;4.75;2.50;;;18.30;99.90;;;;;;4995403;28;20378;-70
2023/07/06 06:24:31;;;;;;;5.03;2.03;;;18.30;99.90;;;;;;4994811;28;20137;-70
2023/07/06 06:26:56;;;;;;;3.08;1.90;;;18.40;99.90;;;;;;4994906;28;20487;-70
2023/07/06 06:29:22;;;;;;;5.00;2.03;;;18.50;99.90;;;;;;4993540;28;20037;-70
2023/07/06 06:31:47;;;;;;;6.78;2.08;;;18.60;99.90;;;;;;4993493;28;20276;-70
2023/07/06 06:34:13;;;;;;;4.68;2.30;;;18.60;99.90;;;;;;4993341;28;20081;-70
2023/07/06 06:36:40;;;;;;;6.57;2.63;;;18.60;99.90;;;;;;4994060;28;20030;-70
2023/07/06 06:39:07;;;;;;;4.43;2.50;;;18.70;99.90;;;;;;4977436;28;20553;-70
2023/07/06 06:41:32;;;;;;;3.88;2.00;;;18.80;99.90;;;;;;4977210;28;20065;-70
2023/07/06 06:43:58;;;;;;;6.40;2.10;;;18.80;99.90;;;;;;4975796;28;20062;-71
2023/07/06 06:46:24;;;;;;;;;;;18.90;99.80;;;;;;4975107;28;20502;-71
2023/07/06 06:48:49;;;;;;;7.38;2.20;;;18.90;99.40;;;;;;4974622;28;19906;-70
2023/07/06 06:51:15;;;;;;;4.30;2.10;;;19.10;98.90;;;;;;4957574;28;20019;-70
2023/07/06 06:53:41;;;;;;;7.88;3.80;;;19.20;98.70;;;;;;4957734;28;20395;-69
2023/07/06 06:56:09;;;;;;;5.38;2.28;;;19.20;98.90;;;;;;4957582;28;20030;-71
2023/07/06 06:58:35;;;;;;;3.75;1.90;;;19.30;98.70;;;;;;4974650;28;20034;-70
2023/07/06 07:01:03;;;;;;;3.80;1.80;;;19.50;97.40;;;;;;4974724;28;20038;-71
2023/07/06 07:03:29;;;;;;;3.20;2.05;;;19.40;97.10;;;;;;4957908;28;20464;-70
2023/07/06 07:06:13;;;;;;;4.72;1.98;;;19.50;97.00;;;;;;4990369;28;20138;-70
2023/07/06 07:08:39;;;;;;;4.55;2.00;;;19.70;96.10;;;;;;4993182;28;20418;-71
2023/07/06 07:11:06;;;;;;;4.60;2.20;;;19.60;96.60;;;;;;4977531;28;20031;-71
2023/07/06 07:13:32;;;;;;;7.18;2.40;;;19.60;96.90;;;;;;4977061;28;20569;-71
2023/07/06 07:15:58;;;;;;;6.85;2.50;;;19.60;97.30;;;;;;4994086;28;20042;-71
2023/07/06 07:18:24;;;;;;;3.97;2.08;;;19.80;97.60;;;;;;4994021;28;20073;-70
2023/07/06 07:20:53;;;;;;;7.35;2.00;;;19.80;97.40;;;;;;4993814;28;20034;-70
2023/07/06 07:23:24;;;;;;;4.57;2.42;;;19.90;97.30;;;;;;4995180;28;20022;-71
2023/07/06 07:25:50;;;;;;;6.63;2.40;;;19.90;97.30;;;;;;4994893;28;20113;-70
2023/07/06 07:28:16;;;;;;;4.90;1.90;;;20.00;97.20;;;;;;4993743;28;20105;-70
2023/07/06 07:30:46;;;;;;;5.70;1.85;;;20.10;96.90;;;;;;4995283;28;20538;-70
2023/07/06 07:33:11;;;;;;;5.18;2.28;;;20.30;96.80;;;;;;4994350;28;20064;-70
2023/07/06 07:35:41;;;;;;;7.78;2.75;;;20.30;96.70;;;;;;4976337;28;20030;-70
2023/07/06 07:38:07;;;;;;;6.53;2.40;;;20.40;96.40;;;;;;4976826;28;20035;-71
2023/07/06 07:40:34;;;;;;;6.00;2.20;;;20.20;96.40;;;;;;4993984;28;20034;-71
2023/07/06 07:42:59;;;;;;;7.68;2.65;;;20.20;96.70;;;;;;4976191;28;20085;-70
2023/07/06 07:45:25;;;;;;;6.10;2.65;;;20.30;96.80;;;;;;4993892;28;20023;-70
2023/07/06 07:47:50;;;;;;;7.10;2.50;;;20.50;96.90;;;;;;4993847;28;20364;-71
2023/07/06 07:50:17;;;;;;;7.47;2.30;;;20.70;97.00;;;;;;4993722;28;20022;-70
2023/07/06 07:52:43;;;;;;;4.60;2.40;;;21.20;96.40;;;;;;4976217;28;20031;-70
2023/07/06 07:55:10;;;;;;;7.80;2.35;;;21.70;95.70;;;;;;4993842;28;20030;-70
2023/07/06 07:57:37;;;;;;;4.68;2.40;;;22.10;94.90;;;;;;4993699;28;20030;-71
2023/07/06 08:00:06;;;;;;;6.45;2.33;;;22.10;94.40;;;;;;4996273;28;20026;-71
2023/07/06 08:02:32;;;;;;;6.28;2.78;;;22.20;93.90;;;;;;4997681;28;20064;-71
2023/07/06 08:05:01;;;;;;;;;;;22.20;93.80;;;;;;4990125;28;20026;-70
2023/07/06 08:07:27;;;;;;;7.65;2.58;;;22.10;93.70;;;;;;4978153;28;19906;-70
2023/07/06 08:09:52;;;;;;;7.05;2.08;;;22.20;93.90;;;;;;4978258;28;20093;-70
2023/07/06 08:12:20;;;;;;;;;;;22.40;93.70;;;;;;4978594;28;20096;-71
2023/07/06 08:14:45;;;;;;;11.27;2.50;;;23.10;93.10;;;;;;4960713;28;19936;-71
2023/07/06 08:17:12;;;;;;;;;;;24.20;92.40;;;;;;4961117;28;20027;-71
2023/07/06 08:19:38;;;;;;;6.50;2.25;;;27.10;89.40;;;;;;4977565;28;19906;-71
2023/07/06 08:22:03;;;;;;;8.85;2.95;;;30.00;82.40;;;;;;4978156;28;20038;-70
2023/07/06 08:24:29;;;;;;;8.82;2.65;;;30.80;76.90;;;;;;4978008;28;20089;-71
2023/07/06 08:26:55;;;;;;;4.90;2.13;;;32.70;73.60;;;;;;4979844;28;20034;-71
2023/07/06 08:29:22;;;;;;;7.05;2.40;;;34.40;68.50;;;;;;4979876;28;20031;-71
2023/07/06 08:31:48;;;;;;;5.80;2.60;;;34.80;64.40;;;;;;4961794;28;20027;-72
2023/07/06 08:34:16;;;;;;;4.57;2.30;;;35.80;62.10;;;;;;4979189;28;20022;-72
2023/07/06 08:36:43;;;;;;;6.88;2.45;;;36.40;60.10;;;;;;4978403;28;20053;-72
2023/07/06 08:39:09;;;;;;;3.67;2.20;;;37.70;58.60;;;;;;4976521;28;20450;-72
2023/07/06 08:41:39;;;;;;;4.18;2.20;;;38.60;56.10;;;;;;4977309;28;20110;-72
2023/07/06 08:44:09;;;;;;;4.97;1.90;;;39.60;54.70;;;;;;4977593;28;20089;-72
2023/07/06 08:46:38;;;;;;;5.20;2.10;;;38.90;53.60;;;;;;4961136;28;20097;-72
2023/07/06 08:49:26;;;;;;;4.82;2.33;;;37.50;54.20;;;;;;4977555;28;20464;-71
2023/07/06 08:51:53;;;;;;;3.95;2.28;;;38.10;54.20;;;;;;4976771;28;20122;-72
2023/07/06 08:54:21;;;;;;;6.70;2.45;;;36.60;55.80;;;;;;4960049;28;20484;-71
2023/07/06 08:56:48;;;;;;;3.90;2.25;;;37.50;55.00;;;;;;4977270;28;20129;-71
2023/07/06 08:59:29;;;;;;;4.10;2.03;;;38.10;54.20;;;;;;4977752;28;20428;-71
2023/07/06 09:01:55;;;;;;;3.97;2.03;;;38.90;53.20;;;;;;4977492;28;20031;-71
2023/07/06 09:04:24;;;;;;;4.57;2.20;;;39.30;52.00;;;;;;4977882;28;20038;-71
2023/07/06 09:06:54;;;;;;;4.30;2.40;;;39.20;51.50;;;;;;4978004;28;20102;-72
2023/07/06 09:09:20;;;;;;;3.25;1.70;;;40.50;51.20;;;;;;4976241;28;20488;-72
2023/07/06 09:11:49;;;;;;;5.13;2.30;;;40.90;49.70;;;;;;4976520;28;20027;-72
2023/07/06 09:14:16;;;;;;;4.05;2.20;;;41.40;48.90;;;;;;4977106;28;20023;-71
2023/07/06 09:16:48;;;;;;;5.85;2.22;;;41.70;48.20;;;;;;4977904;28;20031;-72
2023/07/06 09:19:15;;;;;;;4.03;1.88;;;41.10;48.00;;;;;;4959452;28;20141;-71
2023/07/06 09:21:45;;;;;;;4.20;2.15;;;41.50;47.00;;;;;;4960529;28;20034;-71
2023/07/06 09:24:11;;;;;;;5.32;2.60;;;40.60;47.20;;;;;;4977485;28;20437;-72
2023/07/06 09:26:38;;;;;;;6.03;2.28;;;40.50;47.60;;;;;;4977210;28;20070;-71
2023/07/06 09:29:18;;;;;;;3.22;1.88;;;40.60;47.10;;;;;;4959849;28;20051;-72
2023/07/06 09:31:45;;;;;;;3.13;1.77;;;37.40;47.80;;;;;;4976951;28;20030;-71
2023/07/06 09:34:28;;;;;;;2.33;1.80;;;38.30;48.60;;;;;;4978585;28;20511;-71
2023/07/06 09:36:54;;;;;;;4.55;2.20;;;38.30;48.40;;;;;;4996288;28;20045;-71
2023/07/06 09:39:20;;;;;;;3.33;1.70;;;39.60;48.30;;;;;;4996369;28;20030;-71
2023/07/06 09:41:46;;;;;;;5.75;1.70;;;40.20;47.00;;;;;;4996622;28;20038;-72
2023/07/06 09:44:20;;;;;;;4.25;1.73;;;40.00;46.90;;;;;;4996094;28;20069;-72
2023/07/06 09:46:46;;;;;;;6.07;1.73;;;40.60;46.80;;;;;;4996202;28;20049;-72
2023/07/06 09:49:19;;;;;;;4.93;2.22;;;40.40;46.00;;;;;;4978270;28;20506;-71
2023/07/06 09:52:05;;;;;;;5.13;2.10;;;39.60;46.80;;;;;;4978330;28;20026;-72
2023/07/06 09:54:54;;;;;;;2.83;1.65;;;39.10;47.60;;;;;;4995651;28;20364;-71
2023/07/06 09:57:23;;;;;;;5.05;2.17;;;39.80;47.50;;;;;;4995846;28;20026;-71
2023/07/06 09:59:49;;;;;;;5.07;1.67;;;40.70;47.20;;;;;;4996348;28;20031;-73
2023/07/06 10:02:59;;;;;;;6.22;2.10;;;41.00;46.90;;;;;;4995844;28;20038;-72
2023/07/06 10:05:49;;;;;;;5.85;3.35;;;41.50;45.90;;;;;;4988096;28;20411;-72
2023/07/06 10:08:27;;;;;;;3.08;2.30;;;38.30;47.40;;;;;;4995736;28;20026;-73
2023/07/06 10:11:16;;;;;;;4.30;1.75;;;39.60;47.40;;;;;;4995545;28;20026;-72
2023/07/06 10:14:13;;;;;;;3.60;1.90;;;39.90;46.60;;;;;;4995731;28;20036;-71
2023/07/06 10:17:07;;;;;;;3.13;1.88;;;40.20;46.70;;;;;;5000096;28;20030;-71
2023/07/06 10:19:57;;;;;;;4.35;1.60;;;39.70;46.20;;;;;;5020289;23;20042;-66
2023/07/06 10:22:50;;;;;;;2.63;1.77;;;39.40;46.40;;;;;;4996044;28;20028;-66
2023/07/06 10:25:22;;;;;;;2.60;2.20;;;39.40;47.50;;;;;;4979362;28;20038;-66
2023/07/06 10:27:58;;;;;;;3.22;1.83;;;39.90;47.10;;;;;;4997465;28;20018;-66
2023/07/06 10:30:31;;;;;;;3.75;1.73;;;40.00;46.40;;;;;;4997204;28;20094;-67
2023/07/06 10:33:01;;;;;;;4.25;2.10;;;40.30;45.60;;;;;;4997056;28;20475;-66
2023/07/06 10:35:32;;;;;;;3.92;2.30;;;40.80;45.40;;;;;;4978634;28;20056;-65
2023/07/06 10:37:58;;;;;;;5.05;1.95;;;41.20;45.40;;;;;;4995826;28;20050;-66
2023/07/06 10:40:26;;;;;;;4.05;1.77;;;40.00;44.50;;;;;;4978330;28;20463;-64
2023/07/06 10:43:14;;;;;;;3.22;2.08;;;39.20;45.70;;;;;;4979352;28;20034;-66
2023/07/06 10:46:02;;;;;;;4.68;2.20;;;40.00;45.40;;;;;;4978409;28;20339;-66
2023/07/06 10:48:34;;;;;;;2.45;2.00;;;40.80;44.10;;;;;;4996494;28;20140;-65
2023/07/06 10:51:22;;;;;;;2.72;2.05;;;41.30;43.60;;;;;;4996395;28;20019;-65
2023/07/06 10:54:26;;;;;;;3.83;1.80;;;41.50;43.00;;;;;;4979531;28;20040;-65
2023/07/06 10:57:32;;;;;;;4.15;2.30;;;41.40;43.50;;;;;;4998027;28;20049;-65
2023/07/06 11:00:12;;;;;;;4.57;2.30;;;40.70;43.30;;;;;;4939746;29;20067;-65
2023/07/06 11:02:40;;;;;;;3.80;2.50;;;38.10;44.20;;;;;;4954251;29;20066;-65
2023/07/06 11:05:32;;;;;;;5.38;2.20;;;35.40;45.90;;;;;;4954883;29;20122;-65
2023/07/06 11:08:05;;;;;;;4.65;2.30;;;34.20;46.40;;;;;;4955530;29;20027;-65
2023/07/06 11:10:39;;;;;;;3.92;2.33;;;34.60;46.90;;;;;;4955472;29;20035;-65
2023/07/06 11:13:04;;;;;;;4.55;2.30;;;35.40;46.70;;;;;;4955332;29;20403;-66
2023/07/06 11:15:39;;;;;;;5.38;2.28;;;35.90;45.80;;;;;;4955998;29;20122;-65
2023/07/06 11:18:25;;;;;;;2.83;1.90;;;34.70;46.50;;;;;;4956296;29;20086;-65
2023/07/06 11:21:02;;;;;;;3.30;1.98;;;33.00;47.90;;;;;;4953718;29;20496;-65
2023/07/06 11:23:47;;;;;;;6.25;2.97;;;32.30;47.40;;;;;;4954999;29;20094;-65
2023/07/06 11:26:50;;;;;;;3.08;2.00;;;31.50;49.30;;;;;;4954855;29;20432;-65
2023/07/06 11:29:20;;;;;;;3.58;2.17;;;30.40;49.40;;;;;;4955317;29;20563;-65
2023/07/06 11:32:13;;;;;;;6.32;2.00;;;29.40;51.10;;;;;;4954416;29;20031;-65
2023/07/06 11:35:34;;;;;;;3.97;2.10;;;29.00;52.50;;;;;;4962088;28;20113;-66
2023/07/06 11:38:28;;;;;;;3.08;1.85;;;28.60;52.60;;;;;;4955806;29;20039;-66
2023/07/06 11:41:26;;;;;;;5.13;2.33;;;28.00;53.30;;;;;;4955730;29;20066;-65
2023/07/06 11:44:18;;;;;;;5.60;1.80;;;27.80;54.80;;;;;;4955437;29;20045;-66
2023/07/06 11:47:08;;;;;;;5.68;2.53;;;27.90;55.50;;;;;;4938921;29;20027;-65
2023/07/06 11:49:45;;;;;;;4.90;2.20;;;27.70;55.00;;;;;;4954911;29;20062;-66
2023/07/06 11:52:16;;;;;;;4.45;2.05;;;27.60;56.00;;;;;;4954620;29;20031;-65
2023/07/06 11:54:54;;;;;;;3.55;1.83;;;27.90;55.00;;;;;;4954315;29;20553;-65
2023/07/06 11:57:31;;;;;;;4.35;2.47;;;27.80;52.50;;;;;;4955035;29;20531;-66
2023/07/06 12:03:03;;;;;;;3.97;2.38;;;27.70;52.10;;;;;;4955330;29;20090;-67
2023/07/06 12:05:46;;;;;;;5.00;2.50;;;27.70;51.00;;;;;;4937694;29;20030;-66
2023/07/06 12:08:27;;;;;;;4.70;2.00;;;27.50;51.40;;;;;;4967498;28;20148;-66
2023/07/06 12:10:59;;;;;;;4.32;2.20;;;27.30;52.00;;;;;;4995746;28;20360;-66
2023/07/06 12:13:29;;;;;;;3.83;1.70;;;27.30;52.40;;;;;;4994793;28;20131;-65
2023/07/06 12:16:04;;;;;;;5.75;2.28;;;27.30;53.40;;;;;;4995300;28;20031;-65
2023/07/06 12:18:31;;;;;;;3.25;1.92;;;27.40;53.40;;;;;;4994785;28;20049;-65
2023/07/06 12:20:57;;;;;;;3.75;2.10;;;27.30;54.00;;;;;;4993854;28;20438;-67
2023/07/06 12:23:23;;;;;;;8.68;2.40;;;27.20;53.60;;;;;;4994501;28;20030;-65
2023/07/06 12:25:49;;;;;;;4.90;2.28;;;27.20;54.10;;;;;;4994511;28;20049;-65
2023/07/06 12:28:16;;;;;;;6.72;2.10;;;27.10;54.80;;;;;;4994638;28;20521;-65
2023/07/06 12:30:43;;;;;;;5.32;2.00;;;27.20;53.80;;;;;;4977073;28;20022;-66
2023/07/06 12:33:13;;;;;;;4.45;1.67;;;27.20;53.40;;;;;;4976848;28;20031;-66
2023/07/06 12:35:40;;;;;;;5.38;2.00;;;27.00;53.80;;;;;;4994783;28;20105;-65
2023/07/06 12:38:11;;;;;;;3.30;2.13;;;27.00;53.70;;;;;;4977588;28;20433;-65
2023/07/06 12:40:38;;;;;;;5.40;2.30;;;27.10;52.80;;;;;;4995425;28;20022;-66
2023/07/06 12:43:04;;;;;;;10.43;2.40;;;27.00;51.80;;;;;;4977268;28;20061;-65
2023/07/06 12:45:31;;;;;;;3.58;2.05;;;26.60;53.30;;;;;;4994967;28;20037;-65
2023/07/06 12:48:03;;;;;;;4.07;2.00;;;26.60;54.40;;;;;;4980930;28;20022;-65
2023/07/06 12:50:37;;;;;;;3.78;2.40;;;26.80;54.50;;;;;;4997874;28;20049;-65
2023/07/06 12:53:21;;;;;;;6.53;2.47;;;26.90;53.70;;;;;;4981580;28;20023;-65
2023/07/06 12:55:48;;;;;;;4.95;2.50;;;26.80;53.50;;;;;;4998904;28;20348;-64
2023/07/06 12:58:34;;;;;;;4.88;2.33;;;26.80;53.80;;;;;;4999118;28;20057;-65
2023/07/06 13:01:19;;;;;;;5.20;2.42;;;27.00;53.20;;;;;;4998326;28;20050;-65
2023/07/06 13:03:56;;;;;;;3.85;1.90;;;27.10;52.10;;;;;;4998017;28;20026;-65
2023/07/06 13:06:25;;;;;;;4.03;2.20;;;27.20;51.70;;;;;;4997637;28;20029;-65
2023/07/06 13:09:20;;;;;;;4.07;2.00;;;26.90;51.80;;;;;;4997520;28;20085;-64
2023/07/06 13:11:54;;;;;;;4.72;2.35;;;26.90;53.60;;;;;;4997566;28;20054;-65
2023/07/06 13:14:23;;;;;;;5.03;2.20;;;26.90;55.20;;;;;;4997719;28;20026;-65
2023/07/06 13:16:57;;;;;;;4.35;2.20;;;27.00;55.40;;;;;;4997689;28;20122;-66
2023/07/06 13:19:24;;;;;;;4.53;2.50;;;27.00;55.10;;;;;;4994636;28;20037;-65
2023/07/06 13:21:53;;;;;;;9.38;2.17;;;27.20;54.80;;;;;;4979445;28;20046;-65
2023/07/06 13:24:21;;;;;;;4.53;2.35;;;27.30;54.30;;;;;;4979455;28;20101;-66
2023/07/06 13:26:47;;;;;;;4.05;1.90;;;27.30;54.00;;;;;;4961498;28;20479;-65
2023/07/06 13:29:15;;;;;;;4.15;2.10;;;27.20;53.70;;;;;;4978089;28;20465;-64
2023/07/06 13:31:43;;;;;;;3.00;1.90;;;27.20;54.80;;;;;;4977881;28;20085;-65
2023/07/06 13:34:09;;;;;;;5.10;2.00;;;27.20;54.30;;;;;;4978323;28;20034;-65
2023/07/06 13:36:35;;;;;;;4.93;2.10;;;27.30;54.60;;;;;;4977502;28;20093;-65
2023/07/06 13:39:06;;;;;;;4.00;2.13;;;27.30;54.10;;;;;;4977723;28;20110;-65
2023/07/06 13:41:34;;;;;;;4.82;2.47;;;27.30;54.70;;;;;;4960635;28;20063;-66
2023/07/06 13:44:00;;;;;;;6.35;2.20;;;27.30;54.20;;;;;;4978587;28;20104;-65
2023/07/06 13:46:26;;;;;;;3.55;1.95;;;27.30;54.30;;;;;;4979269;28;20479;-65
2023/07/06 13:48:52;;;;;;;3.33;2.15;;;27.30;53.20;;;;;;4978814;28;20078;-65
2023/07/06 13:51:18;;;;;;;4.88;2.78;;;27.40;53.80;;;;;;4973880;28;20477;-65
2023/07/06 13:53:49;;;;;;;5.22;2.20;;;27.40;54.00;;;;;;4967785;28;20035;-65
2023/07/06 13:56:15;;;;;;;5.68;2.42;;;27.50;52.70;;;;;;4952085;28;20259;-64
2023/07/06 13:58:43;;;;;;;6.68;2.13;;;27.30;53.40;;;;;;4959150;28;20379;-65
2023/07/06 14:01:17;;;;;;;6.85;2.92;;;27.30;54.20;;;;;;4960499;28;20035;-65
2023/07/06 14:03:43;;;;;;;5.65;2.50;;;27.40;54.50;;;;;;4977212;28;20034;-65
2023/07/06 14:06:10;;;;;;;3.60;2.40;;;27.50;54.10;;;;;;4977295;28;20081;-65
2023/07/06 14:08:37;;;;;;;3.92;2.30;;;27.50;54.00;;;;;;4969298;28;20102;-65
2023/07/06 14:11:03;;;;;;;7.05;2.28;;;27.50;54.30;;;;;;4970141;28;20037;-65
2023/07/06 14:13:30;;;;;;;4.22;2.40;;;27.40;54.50;;;;;;4962766;28;20023;-65
2023/07/06 14:15:56;;;;;;;6.10;2.42;;;27.40;54.60;;;;;;4953772;28;20034;-65
2023/07/06 14:18:23;;;;;;;5.63;2.42;;;27.40;54.10;;;;;;4952313;28;20535;-66
2023/07/06 14:20:50;;;;;;;3.90;2.47;;;27.40;53.50;;;;;;4969884;28;20032;-66
2023/07/06 14:23:17;;;;;;;6.00;2.65;;;27.50;53.70;;;;;;4957387;28;20373;-66
2023/07/06 14:25:44;;;;;;;3.83;2.00;;;27.50;53.30;;;;;;4956413;29;20082;-66
2023/07/06 14:28:12;;;;;;;7.43;3.17;;;27.40;53.20;;;;;;4966599;28;20037;-65
2023/07/06 14:30:38;;;;;;;5.45;2.30;;;27.50;54.20;;;;;;4973587;28;20022;-65
2023/07/06 14:33:08;;;;;;;3.67;1.90;;;27.60;54.10;;;;;;4975316;28;20435;-65
2023/07/06 14:35:35;;;;;;;3.47;2.38;;;27.60;52.70;;;;;;4958594;28;20054;-64
2023/07/06 14:38:06;;;;;;;6.28;2.38;;;27.50;52.20;;;;;;4958122;28;20464;-65
2023/07/06 14:40:35;;;;;;;3.88;2.33;;;27.50;53.10;;;;;;4975199;28;20113;-65
2023/07/06 14:43:01;;;;;;;6.03;2.72;;;27.60;53.60;;;;;;4958259;28;20114;-65
2023/07/06 14:45:27;;;;;;;8.57;2.60;;;27.70;54.20;;;;;;4975277;28;20038;-66
2023/07/06 14:47:53;;;;;;;3.58;2.22;;;27.90;54.40;;;;;;4975942;28;20023;-65
2023/07/06 14:50:18;;;;;;;4.43;1.90;;;27.80;54.00;;;;;;4975407;28;20027;-65
2023/07/06 14:52:45;;;;;;;3.50;2.58;;;27.80;53.80;;;;;;4975352;28;20065;-65
2023/07/06 14:55:12;;;;;;;5.25;2.25;;;27.80;54.40;;;;;;4943170;29;20030;-65
2023/07/06 14:57:38;;;;;;;7.53;2.42;;;27.60;53.40;;;;;;4955776;29;20373;-65
2023/07/06 15:00:10;;;;;;;3.78;1.88;;;27.70;53.60;;;;;;4955716;28;20035;-64
2023/07/06 15:02:35;;;;;;;4.75;2.15;;;27.70;53.40;;;;;;4955936;29;20058;-65
2023/07/06 15:05:01;;;;;;;4.22;2.40;;;27.50;53.20;;;;;;4955444;29;20484;-66
2023/07/06 15:07:26;;;;;;;5.57;2.63;;;27.60;53.60;;;;;;4961707;28;20027;-65
2023/07/06 15:09:52;;;;;;;5.30;2.15;;;27.60;54.40;;;;;;4965271;28;20481;-66
2023/07/06 15:12:18;;;;;;;4.55;2.30;;;27.30;52.90;;;;;;4972306;28;20087;-64
2023/07/06 15:14:43;;;;;;;5.05;2.22;;;27.30;53.10;;;;;;4974797;28;20033;-68
2023/07/06 15:17:10;;;;;;;3.58;2.20;;;27.30;52.60;;;;;;4974990;28;20109;-68
2023/07/06 15:19:36;;;;;;;4.47;2.30;;;27.20;52.70;;;;;;4979783;28;20049;-68
2023/07/06 15:22:02;;;;;;;5.82;2.97;;;27.10;53.20;;;;;;4993941;28;20034;-67
2023/07/06 15:24:28;;;;;;;5.38;2.30;;;27.10;54.10;;;;;;4976383;28;20113;-68
2023/07/06 15:26:54;;;;;;;4.35;2.38;;;27.20;53.70;;;;;;4994083;28;20023;-67
2023/07/06 15:29:20;;;;;;;10.63;7.18;;;27.30;54.10;;;;;;4994082;28;20058;-68
2023/07/06 15:31:46;;;;;;;3.40;2.15;;;27.30;54.80;;;;;;4994351;28;20026;-67
2023/07/06 15:34:12;;;;;;;5.93;2.20;;;27.30;55.00;;;;;;4976684;28;20033;-65
2023/07/06 15:36:38;;;;;;;3.33;2.22;;;27.40;55.00;;;;;;4993748;28;20125;-65
2023/07/06 15:39:04;;;;;;;5.47;2.38;;;27.40;54.30;;;;;;4994072;28;20029;-66
2023/07/06 15:41:34;;;;;;;4.55;2.10;;;27.50;54.10;;;;;;4994518;28;20069;-66
2023/07/06 15:44:01;;;;;;;5.95;2.40;;;27.50;54.60;;;;;;4994424;28;20156;-67
2023/07/06 15:46:29;;;;;;;4.28;2.25;;;27.50;54.60;;;;;;4994867;28;20026;-67
2023/07/06 15:48:55;;;;;;;3.30;2.22;;;27.40;54.80;;;;;;4994372;28;20038;-67
2023/07/06 15:51:21;;;;;;;4.03;2.47;;;27.30;55.00;;;;;;4994742;28;20027;-67
2023/07/06 15:53:46;;;;;;;5.63;2.67;;;27.30;53.60;;;;;;4994968;28;20038;-66
2023/07/06 15:56:12;;;;;;;4.22;2.65;;;27.40;53.50;;;;;;4994663;28;20533;-66
2023/07/06 15:58:37;;;;;;;4.57;2.47;;;27.40;52.40;;;;;;4994337;28;20061;-66
2023/07/06 16:01:04;;;;;;;4.85;2.10;;;27.40;52.60;;;;;;4993878;28;20539;-65
2023/07/06 16:03:30;;;;;;;5.53;2.60;;;27.20;52.40;;;;;;4994183;28;20027;-66
2023/07/06 16:05:56;;;;;;;4.18;2.38;;;27.10;52.90;;;;;;4995016;28;20036;-67
2023/07/06 16:08:22;;;;;;;6.25;2.30;;;27.00;52.20;;;;;;4994872;28;20022;-66
2023/07/06 16:10:49;;;;;;;4.85;2.40;;;27.00;52.90;;;;;;4994925;28;20022;-66
2023/07/06 16:13:16;;;;;;;5.40;2.53;;;27.00;52.60;;;;;;4989287;28;20126;-67
2023/07/06 16:15:42;;;;;;;4.93;2.30;;;27.00;52.60;;;;;;4971699;28;20074;-66
2023/07/06 16:18:08;;;;;;;3.83;2.13;;;26.70;52.70;;;;;;4958155;28;20027;-66
2023/07/06 16:20:35;;;;;;;4.47;2.50;;;26.60;52.80;;;;;;4987844;28;20031;-68
2023/07/06 16:23:01;;;;;;;3.72;2.25;;;26.60;53.70;;;;;;4982335;28;20090;-69
2023/07/06 16:25:28;;;;;;;5.05;2.58;;;26.60;53.60;;;;;;4968476;28;20038;-67
2023/07/06 16:27:56;;;;;;;5.35;2.25;;;26.60;53.70;;;;;;4967570;28;20022;-66
2023/07/06 16:30:23;;;;;;;4.40;2.15;;;26.60;54.20;;;;;;4969807;28;20027;-64
2023/07/06 16:32:52;;;;;;;8.35;2.13;;;26.30;53.80;;;;;;4965757;28;20030;-66
2023/07/06 16:35:18;;;;;;;4.55;2.20;;;26.30;54.90;;;;;;4958611;29;20031;-67
2023/07/06 16:37:44;;;;;;;4.75;2.33;;;26.30;55.50;;;;;;4958412;29;20092;-66
2023/07/06 16:40:10;;;;;;;;;;;26.30;55.20;;;;;;4941402;29;20031;-67
2023/07/06 16:42:35;;;;;;;3.55;2.38;;;26.30;55.30;;;;;;4941646;29;19910;-66
2023/07/06 16:45:02;;;;;;;5.53;2.00;;;26.30;55.50;;;;;;4960472;28;20035;-66
2023/07/06 16:47:28;;;;;;;4.15;2.13;;;26.20;55.20;;;;;;4977466;28;20027;-66
2023/07/06 16:49:54;;;;;;;4.40;2.25;;;26.10;54.80;;;;;;4960162;28;20110;-66
2023/07/06 16:52:21;;;;;;;5.47;2.45;;;26.00;55.60;;;;;;4977078;28;20125;-66
2023/07/06 16:54:46;;;;;;;4.63;2.50;;;26.00;56.70;;;;;;4977627;28;20058;-67
2023/07/06 16:57:12;;;;;;;;;;;26.10;56.10;;;;;;4977861;28;20066;-67
2023/07/06 16:59:37;;;;;;;4.00;2.70;;;26.10;56.80;;;;;;4977065;28;20377;-67
2023/07/06 17:02:04;;;;;;;5.05;3.15;;;26.10;56.60;;;;;;4977567;28;20039;-66
2023/07/06 17:04:31;;;;;;;4.25;2.20;;;26.20;55.80;;;;;;4977258;28;20027;-68